createdAt,value
2022-09-29T00:01:05.087Z,12.10
2022-09-29T00:03:32.175Z,12.10
2022-09-29T00:05:59.525Z,12.00
2022-09-29T00:08:30.729Z,12.00
2022-09-29T00:10:57.925Z,12.00
2022-09-29T00:13:25.131Z,12.00
2022-09-29T00:15:57.629Z,12.00
2022-09-29T00:18:24.851Z,12.00
2022-09-29T00:20:59.370Z,12.00
2022-09-29T00:23:28.043Z,12.00
2022-09-29T00:26:25.041Z,11.90
2022-09-29T00:28:55.739Z,11.90
2022-09-29T00:31:24.985Z,11.90
2022-09-29T00:33:52.490Z,11.90
2022-09-29T00:36:21.846Z,11.90
2022-09-29T00:38:51.167Z,11.90
2022-09-29T00:41:24.516Z,11.90
2022-09-29T00:44:00.596Z,11.90
2022-09-29T00:46:39.717Z,11.90
2022-09-29T00:49:19.212Z,11.90
2022-09-29T00:51:59.705Z,11.90
2022-09-29T00:54:31.030Z,11.90
2022-09-29T00:57:00.318Z,11.90
2022-09-29T00:59:40.376Z,11.90
2022-09-29T01:02:07.603Z,11.90
2022-09-29T01:04:35.071Z,11.90
2022-09-29T01:07:02.923Z,11.90
2022-09-29T01:09:35.273Z,11.90
2022-09-29T01:12:02.582Z,11.80
2022-09-29T01:14:31.746Z,11.80
2022-09-29T01:16:59.723Z,11.70
2022-09-29T01:19:34.404Z,11.70
2022-09-29T01:22:32.234Z,11.70
2022-09-29T01:25:31.724Z,11.80
2022-09-29T01:28:36.215Z,11.70
2022-09-29T01:31:06.091Z,11.80
2022-09-29T01:33:45.074Z,11.70
2022-09-29T01:36:31.102Z,11.80
2022-09-29T01:39:10.163Z,11.80
2022-09-29T01:41:40.954Z,11.70
2022-09-29T01:44:20.416Z,11.70
2022-09-29T01:46:59.495Z,11.80
2022-09-29T01:49:30.834Z,11.70
2022-09-29T01:52:07.114Z,11.70
2022-09-29T01:54:59.889Z,11.70
2022-09-29T01:57:54.598Z,11.80
2022-09-29T02:00:24.278Z,11.70
2022-09-29T02:02:58.985Z,11.70
2022-09-29T02:05:38.643Z,11.70
2022-09-29T02:08:22.717Z,11.70
2022-09-29T02:11:05.278Z,11.70
2022-09-29T02:13:38.678Z,11.70
2022-09-29T02:16:07.308Z,11.70
2022-09-29T02:18:42.288Z,11.80
2022-09-29T02:21:09.907Z,11.70
2022-09-29T02:23:36.882Z,11.70
2022-09-29T02:26:04.634Z,11.70
2022-09-29T02:28:31.872Z,11.70
2022-09-29T02:30:59.222Z,11.70
2022-09-29T02:33:26.512Z,11.70
2022-09-29T02:36:11.614Z,11.60
2022-09-29T02:38:57.442Z,11.70
2022-09-29T02:41:27.185Z,11.60
2022-09-29T02:44:05.878Z,11.60
2022-09-29T02:46:54.106Z,11.60
2022-09-29T02:49:48.444Z,11.60
2022-09-29T02:52:43.298Z,11.60
2022-09-29T02:55:10.279Z,11.60
2022-09-29T02:57:43.210Z,11.60
2022-09-29T03:00:18.983Z,11.50
2022-09-29T03:02:46.626Z,11.50
2022-09-29T03:05:17.345Z,11.60
2022-09-29T03:07:44.467Z,11.60
2022-09-29T03:10:12.966Z,11.50
2022-09-29T03:12:40.093Z,11.50
2022-09-29T03:15:08.661Z,11.50
2022-09-29T03:17:36.213Z,11.50
2022-09-29T03:20:03.280Z,11.50
2022-09-29T03:22:30.370Z,11.50
2022-09-29T03:24:57.418Z,11.50
2022-09-29T03:27:24.441Z,11.50
2022-09-29T03:29:51.473Z,11.40
2022-09-29T03:32:18.785Z,11.40
2022-09-29T03:34:45.890Z,11.40
2022-09-29T03:37:12.999Z,11.40
2022-09-29T03:39:39.987Z,11.40
2022-09-29T03:42:07.078Z,11.40
2022-09-29T03:44:34.143Z,11.40
2022-09-29T03:47:01.195Z,11.40
2022-09-29T03:49:28.246Z,11.40
2022-09-29T03:51:55.239Z,11.30
2022-09-29T03:54:24.482Z,11.30
2022-09-29T03:56:51.487Z,11.40
2022-09-29T03:59:18.770Z,11.30
2022-09-29T04:01:46.013Z,11.30
2022-09-29T04:04:13.246Z,11.30
2022-09-29T04:06:40.251Z,11.30
2022-09-29T04:09:07.347Z,11.30
2022-09-29T04:11:34.429Z,11.30
2022-09-29T04:14:01.510Z,11.30
2022-09-29T04:16:28.671Z,11.20
2022-09-29T04:18:56.115Z,11.20
2022-09-29T04:21:23.193Z,11.20
2022-09-29T04:23:50.459Z,11.20
2022-09-29T04:26:18.062Z,11.20
2022-09-29T04:28:45.291Z,11.20
2022-09-29T04:31:12.336Z,11.10
2022-09-29T04:33:39.485Z,11.10
2022-09-29T04:36:06.945Z,11.10
2022-09-29T04:38:34.065Z,11.10
2022-09-29T04:41:01.228Z,11.10
2022-09-29T04:43:28.293Z,11.10
2022-09-29T04:46:02.766Z,11.10
2022-09-29T04:48:34.913Z,11.10
2022-09-29T04:51:03.513Z,11.10
2022-09-29T04:53:30.588Z,11.10
2022-09-29T04:55:57.729Z,11.10
2022-09-29T04:58:24.852Z,11.10
2022-09-29T05:00:51.999Z,11.10
2022-09-29T05:03:19.214Z,11.10
2022-09-29T05:05:46.286Z,11.10
2022-09-29T05:08:13.586Z,11.10
2022-09-29T05:10:40.692Z,11.10
2022-09-29T05:13:07.767Z,11.10
2022-09-29T05:15:35.117Z,11.10
2022-09-29T05:18:03.556Z,11.00
2022-09-29T05:20:38.350Z,11.10
2022-09-29T05:23:10.465Z,11.00
2022-09-29T05:25:38.833Z,11.00
2022-09-29T05:28:05.978Z,11.00
2022-09-29T05:30:33.069Z,11.00
2022-09-29T05:33:00.124Z,11.00
2022-09-29T05:35:27.239Z,11.00
2022-09-29T05:37:54.489Z,11.00
2022-09-29T05:40:24.783Z,11.00
2022-09-29T05:42:52.557Z,11.00
2022-09-29T05:45:19.601Z,11.10
2022-09-29T05:47:46.868Z,11.10
2022-09-29T05:50:14.729Z,11.10
2022-09-29T05:52:42.235Z,11.10
2022-09-29T05:55:11.164Z,11.10
2022-09-29T05:57:38.623Z,11.10
2022-09-29T06:00:06.528Z,11.20
2022-09-29T06:02:34.331Z,11.20
2022-09-29T06:05:01.564Z,11.30
2022-09-29T06:07:29.095Z,11.30
2022-09-29T06:09:56.246Z,11.40
2022-09-29T06:12:23.496Z,11.50
2022-09-29T06:14:50.622Z,11.50
2022-09-29T06:17:17.773Z,11.60
2022-09-29T06:19:45.121Z,11.70
2022-09-29T06:22:12.232Z,11.70
2022-09-29T06:24:39.277Z,11.80
2022-09-29T06:27:06.307Z,11.90
2022-09-29T06:29:33.421Z,11.90
2022-09-29T06:32:00.793Z,12.00
2022-09-29T06:34:27.930Z,12.10
2022-09-29T06:37:27.252Z,12.10
2022-09-29T06:39:54.289Z,12.20
2022-09-29T06:42:22.133Z,12.30
2022-09-29T06:44:49.128Z,12.30
2022-09-29T06:47:16.167Z,12.30
2022-09-29T06:49:49.662Z,12.20
2022-09-29T06:52:30.582Z,12.10
2022-09-29T06:54:57.651Z,12.10
2022-09-29T06:57:25.068Z,12.10
2022-09-29T06:59:52.292Z,12.00
2022-09-29T07:02:19.860Z,12.00
2022-09-29T07:04:49.339Z,12.00
2022-09-29T07:07:16.749Z,11.90
2022-09-29T07:09:44.102Z,11.90
2022-09-29T07:12:11.986Z,11.90
2022-09-29T07:14:39.114Z,11.90
2022-09-29T07:17:06.601Z,11.90
2022-09-29T07:19:33.735Z,11.90
2022-09-29T07:22:01.102Z,11.90
2022-09-29T07:24:28.159Z,12.00
2022-09-29T07:26:55.399Z,12.10
2022-09-29T07:29:22.928Z,12.20
2022-09-29T07:31:53.081Z,12.30
2022-09-29T07:34:21.858Z,12.40
2022-09-29T07:36:49.113Z,12.40
2022-09-29T07:39:16.382Z,12.50
2022-09-29T07:41:43.612Z,12.50
2022-09-29T07:44:10.680Z,12.50
2022-09-29T07:46:37.856Z,12.50
2022-09-29T07:49:05.447Z,12.60
2022-09-29T07:51:32.802Z,12.60
2022-09-29T07:54:05.680Z,12.60
2022-09-29T07:56:33.681Z,12.60
2022-09-29T07:59:02.680Z,12.60
2022-09-29T08:01:30.515Z,12.60
2022-09-29T08:03:58.451Z,12.60
2022-09-29T08:06:27.118Z,12.60
2022-09-29T08:09:03.321Z,12.70
2022-09-29T08:11:32.846Z,12.70
2022-09-29T08:14:01.791Z,12.80
2022-09-29T08:16:29.684Z,12.80
2022-09-29T08:18:56.925Z,12.90
2022-09-29T08:21:24.243Z,12.90
2022-09-29T08:23:51.405Z,12.90
2022-09-29T08:26:31.054Z,13.00
2022-09-29T08:29:07.473Z,13.00
2022-09-29T08:31:35.763Z,13.00
2022-09-29T08:34:03.097Z,13.00
2022-09-29T08:36:30.214Z,13.10
2022-09-29T08:38:57.856Z,13.10
2022-09-29T08:41:52.534Z,13.20
2022-09-29T08:44:37.669Z,13.30
2022-09-29T08:47:10.995Z,13.50
2022-09-29T08:49:48.984Z,13.60
2022-09-29T08:52:50.251Z,13.70
2022-09-29T08:55:21.471Z,13.80
2022-09-29T08:57:55.864Z,13.90
2022-09-29T09:00:34.064Z,14.10
2022-09-29T09:03:21.938Z,14.20
2022-09-29T09:06:07.956Z,14.40
2022-09-29T09:08:53.633Z,14.50
2022-09-29T09:11:33.580Z,14.60
2022-09-29T09:14:19.845Z,14.60
2022-09-29T09:17:08.045Z,14.70
2022-09-29T09:19:57.635Z,14.70
2022-09-29T09:25:21.374Z,14.70
2022-09-29T09:28:10.883Z,14.80
2022-09-29T09:30:49.003Z,14.90
2022-09-29T09:34:05.663Z,14.90
2022-09-29T09:36:37.071Z,14.90
2022-09-29T09:39:14.573Z,14.90
2022-09-29T09:41:46.144Z,15.10
2022-09-29T09:44:42.001Z,15.30
2022-09-29T09:47:29.082Z,15.30
2022-09-29T09:50:12.113Z,15.60
2022-09-29T09:52:45.179Z,16.00
2022-09-29T09:55:26.366Z,16.00
2022-09-29T09:57:53.414Z,16.00
2022-09-29T10:00:36.111Z,16.00
2022-09-29T10:03:06.575Z,16.00
2022-09-29T10:05:42.577Z,16.00
2022-09-29T10:08:19.177Z,16.10
2022-09-29T10:10:57.479Z,16.20
2022-09-29T10:13:28.818Z,16.30
2022-09-29T10:16:16.725Z,16.50
2022-09-29T10:18:52.827Z,16.70
2022-09-29T10:21:29.728Z,16.90
2022-09-29T10:23:57.638Z,17.00
2022-09-29T10:26:28.803Z,17.10
2022-09-29T10:29:24.085Z,17.20
2022-09-29T10:32:05.780Z,17.40
2022-09-29T10:34:36.220Z,17.40
2022-09-29T10:37:07.981Z,17.50
2022-09-29T10:39:48.218Z,17.50
2022-09-29T10:42:35.105Z,17.40
2022-09-29T10:45:15.609Z,17.40
2022-09-29T10:47:49.623Z,17.50
2022-09-29T10:50:22.889Z,17.60
2022-09-29T10:52:54.688Z,17.70
2022-09-29T10:55:23.569Z,17.80
2022-09-29T10:57:53.020Z,18.00
2022-09-29T11:00:36.310Z,18.10
2022-09-29T11:03:26.656Z,18.30
2022-09-29T11:06:01.310Z,18.40
2022-09-29T11:08:28.363Z,18.50
2022-09-29T11:11:25.180Z,18.60
2022-09-29T11:13:53.687Z,18.80
2022-09-29T11:16:28.347Z,18.90
2022-09-29T11:19:11.389Z,19.00
2022-09-29T11:21:53.331Z,19.10
2022-09-29T11:24:55.005Z,19.20
2022-09-29T11:27:33.241Z,19.30
2022-09-29T11:30:11.115Z,19.40
2022-09-29T11:33:05.266Z,19.20
2022-09-29T11:35:50.542Z,19.30
2022-09-29T11:38:17.431Z,19.40
2022-09-29T11:41:25.552Z,19.40
2022-09-29T11:43:56.398Z,19.40
2022-09-29T11:46:45.484Z,19.40
2022-09-29T11:49:45.221Z,19.20
2022-09-29T11:52:33.603Z,19.20
2022-09-29T11:55:14.374Z,19.20
2022-09-29T11:57:55.828Z,19.20
2022-09-29T12:00:47.572Z,19.30
2022-09-29T12:03:41.708Z,19.30
2022-09-29T12:06:31.741Z,19.40
2022-09-29T12:09:08.054Z,19.30
2022-09-29T12:12:22.728Z,19.30
2022-09-29T12:17:56.007Z,18.80
2022-09-29T12:20:30.200Z,18.90
2022-09-29T12:23:01.446Z,18.90
2022-09-29T12:25:32.957Z,18.80
2022-09-29T12:28:12.858Z,18.70
2022-09-29T12:30:51.967Z,18.60
2022-09-29T12:33:37.846Z,18.80
2022-09-29T12:36:40.820Z,18.90
2022-09-29T12:39:48.745Z,19.20
2022-09-29T12:42:15.719Z,19.50
2022-09-29T12:44:53.685Z,19.50
2022-09-29T12:47:54.369Z,19.40
2022-09-29T12:50:41.902Z,19.20
2022-09-29T12:53:43.667Z,19.10
2022-09-29T12:56:25.862Z,19.10
2022-09-29T12:59:05.500Z,19.10
2022-09-29T13:01:38.435Z,19.20
2022-09-29T13:04:26.095Z,19.30
2022-09-29T13:07:34.966Z,19.50
2022-09-29T13:10:20.209Z,19.50
2022-09-29T13:13:17.759Z,19.40
2022-09-29T13:15:53.697Z,19.10
2022-09-29T13:18:59.772Z,19.00
2022-09-29T13:21:59.550Z,18.90
2022-09-29T13:24:52.600Z,18.80
2022-09-29T13:27:47.267Z,18.70
2022-09-29T13:30:21.901Z,18.70
2022-09-29T13:33:10.892Z,18.70
2022-09-29T13:35:41.481Z,19.00
2022-09-29T13:38:15.278Z,19.40
2022-09-29T13:41:13.012Z,19.50
2022-09-29T13:44:00.009Z,19.70
2022-09-29T13:46:32.703Z,19.80
2022-09-29T13:49:08.839Z,19.90
2022-09-29T13:51:53.710Z,20.10
2022-09-29T13:54:37.255Z,20.20
2022-09-29T13:57:16.530Z,20.10
2022-09-29T14:00:18.445Z,20.10
2022-09-29T14:03:02.331Z,20.00
2022-09-29T14:05:29.322Z,19.70
2022-09-29T14:07:57.102Z,19.50
2022-09-29T14:10:32.490Z,19.30
2022-09-29T14:13:08.425Z,19.30
2022-09-29T14:15:47.515Z,19.30
2022-09-29T14:18:35.711Z,19.00
2022-09-29T14:21:06.353Z,18.80
2022-09-29T14:23:49.757Z,18.60
2022-09-29T14:26:53.106Z,18.60
2022-09-29T14:29:34.152Z,18.50
2022-09-29T14:32:02.603Z,18.50
2022-09-29T14:34:33.371Z,18.40
2022-09-29T14:37:03.962Z,18.30
2022-09-29T14:39:32.487Z,18.20
2022-09-29T14:42:00.802Z,18.10
2022-09-29T14:44:49.868Z,18.00
2022-09-29T14:47:59.779Z,17.80
2022-09-29T14:50:54.996Z,17.70
2022-09-29T14:53:32.587Z,17.50
2022-09-29T14:56:27.121Z,17.50
2022-09-29T14:59:11.545Z,17.50
2022-09-29T15:02:07.003Z,17.40
2022-09-29T15:04:39.789Z,17.30
2022-09-29T15:07:13.308Z,17.30
2022-09-29T15:09:46.403Z,17.30
2022-09-29T15:12:20.399Z,17.20
2022-09-29T15:14:47.470Z,17.20
2022-09-29T15:17:25.431Z,17.10
2022-09-29T15:20:08.277Z,17.10
2022-09-29T15:22:53.218Z,17.00
2022-09-29T15:25:34.800Z,16.90
2022-09-29T15:28:16.488Z,16.90
2022-09-29T15:30:46.240Z,16.80
2022-09-29T15:33:36.038Z,16.80
2022-09-29T15:36:14.523Z,16.70
2022-09-29T15:38:41.603Z,16.60
2022-09-29T15:41:11.562Z,16.60
2022-09-29T15:43:58.401Z,16.50
2022-09-29T15:46:35.594Z,16.40
2022-09-29T15:49:18.138Z,16.40
2022-09-29T15:51:56.713Z,16.30
2022-09-29T15:54:24.513Z,16.30
2022-09-29T15:57:09.999Z,16.30
2022-09-29T15:59:51.487Z,16.20
2022-09-29T16:02:41.035Z,16.10
2022-09-29T16:05:14.542Z,16.10
2022-09-29T16:08:00.872Z,16.00
2022-09-29T16:10:33.878Z,16.00
2022-09-29T16:13:08.832Z,15.90
2022-09-29T16:15:44.590Z,15.90
2022-09-29T16:18:27.263Z,15.90
2022-09-29T16:20:59.726Z,15.80
2022-09-29T16:23:42.981Z,15.80
2022-09-29T16:26:14.579Z,15.70
2022-09-29T16:29:11.126Z,15.70
2022-09-29T16:31:41.767Z,15.60
2022-09-29T16:34:29.073Z,15.60
2022-09-29T16:37:05.719Z,15.60
2022-09-29T16:39:42.505Z,15.50
2022-09-29T16:42:35.894Z,15.50
2022-09-29T16:45:03.045Z,15.40
2022-09-29T16:47:33.386Z,15.40
2022-09-29T16:50:14.376Z,15.40
2022-09-29T16:52:48.171Z,15.30
2022-09-29T16:55:28.093Z,15.30
2022-09-29T16:57:59.131Z,15.30
2022-09-29T17:00:28.842Z,15.20
2022-09-29T17:02:58.100Z,15.10
2022-09-29T17:05:26.615Z,15.00
2022-09-29T17:08:05.153Z,15.00
2022-09-29T17:10:32.766Z,15.00
2022-09-29T17:13:00.552Z,14.90
2022-09-29T17:15:27.771Z,14.90
2022-09-29T17:17:55.061Z,14.80
2022-09-29T17:20:31.283Z,14.80
2022-09-29T17:23:00.257Z,14.80
2022-09-29T17:25:27.691Z,14.70
2022-09-29T17:28:13.150Z,14.70
2022-09-29T17:30:45.658Z,14.70
2022-09-29T17:33:16.254Z,14.60
2022-09-29T17:35:52.961Z,14.60
2022-09-29T17:38:22.288Z,14.50
2022-09-29T17:40:51.867Z,14.40
2022-09-29T17:43:19.495Z,14.40
2022-09-29T17:45:47.489Z,14.30
2022-09-29T17:48:15.715Z,14.30
2022-09-29T17:50:48.646Z,14.20
2022-09-29T17:53:16.896Z,14.20
2022-09-29T17:55:46.806Z,14.10
2022-09-29T17:58:17.594Z,14.10
2022-09-29T18:00:49.182Z,14.10
2022-09-29T18:03:18.736Z,14.10
2022-09-29T18:05:49.290Z,14.00
2022-09-29T18:08:18.911Z,14.00
2022-09-29T18:10:49.952Z,13.90
2022-09-29T18:13:17.355Z,13.80
2022-09-29T18:15:45.447Z,13.70
2022-09-29T18:18:18.372Z,13.70
2022-09-29T18:20:47.650Z,13.60
2022-09-29T18:23:18.308Z,13.50
2022-09-29T18:25:48.255Z,13.40
2022-09-29T18:28:17.476Z,13.40
2022-09-29T18:30:48.143Z,13.30
2022-09-29T18:33:17.307Z,13.20
2022-09-29T18:35:53.808Z,13.10
2022-09-29T18:38:21.971Z,13.10
2022-09-29T18:40:52.377Z,13.10
2022-09-29T18:43:21.243Z,13.00
2022-09-29T18:45:50.136Z,13.00
2022-09-29T18:48:17.871Z,13.00
2022-09-29T18:50:49.194Z,13.00
2022-09-29T18:53:20.088Z,13.10
2022-09-29T18:55:49.776Z,13.10
2022-09-29T18:58:20.057Z,13.10
2022-09-29T19:00:54.212Z,13.10
2022-09-29T19:03:27.503Z,13.10
2022-09-29T19:05:56.606Z,13.10
2022-09-29T19:08:24.210Z,13.10
2022-09-29T19:10:54.673Z,13.10
2022-09-29T19:13:22.859Z,13.10
2022-09-29T19:15:50.776Z,13.10
2022-09-29T19:18:24.050Z,13.10
2022-09-29T19:20:56.367Z,13.20
2022-09-29T19:23:25.473Z,13.10
2022-09-29T19:25:54.326Z,13.10
2022-09-29T19:28:27.515Z,13.10
2022-09-29T19:30:56.315Z,13.10
2022-09-29T19:33:24.506Z,13.10
2022-09-29T19:35:54.907Z,13.20
2022-09-29T19:38:23.552Z,13.20
2022-09-29T19:40:52.195Z,13.10
2022-09-29T19:43:21.739Z,13.10
2022-09-29T19:45:50.999Z,13.10
2022-09-29T19:48:21.460Z,13.00
2022-09-29T19:51:14.459Z,13.00
2022-09-29T19:53:44.587Z,13.00
2022-09-29T19:56:16.902Z,13.00
2022-09-29T19:58:44.302Z,13.00
2022-09-29T20:01:13.349Z,12.90
2022-09-29T20:03:42.048Z,12.90
2022-09-29T20:06:10.921Z,12.90
2022-09-29T20:08:38.269Z,12.90
2022-09-29T20:11:08.070Z,12.90
2022-09-29T20:13:35.389Z,12.90
2022-09-29T20:16:02.979Z,12.80
2022-09-29T20:18:30.176Z,12.80
2022-09-29T20:20:58.035Z,12.80
2022-09-29T20:23:25.263Z,12.80
2022-09-29T20:26:02.060Z,12.80
2022-09-29T20:28:29.507Z,12.90
2022-09-29T20:30:58.451Z,12.90
2022-09-29T20:33:29.499Z,12.90
2022-09-29T20:35:56.660Z,13.00
2022-09-29T20:38:23.809Z,13.00
2022-09-29T20:40:50.943Z,13.00
2022-09-29T20:43:17.989Z,13.00
2022-09-29T20:45:45.160Z,13.00
2022-09-29T20:48:12.260Z,13.00
2022-09-29T20:50:39.427Z,13.00
2022-09-29T20:53:06.556Z,13.00
2022-09-29T20:55:35.639Z,13.10
2022-09-29T20:58:03.331Z,13.10
2022-09-29T21:00:30.592Z,13.10
2022-09-29T21:02:58.398Z,13.10
2022-09-29T21:05:25.604Z,13.10
2022-09-29T21:07:52.828Z,13.10
2022-09-29T21:10:20.290Z,13.10
2022-09-29T21:12:47.416Z,13.10
2022-09-29T21:15:14.624Z,13.10
2022-09-29T21:17:41.756Z,13.10
2022-09-29T21:20:09.606Z,13.10
2022-09-29T21:22:37.422Z,13.10
2022-09-29T21:25:04.780Z,13.10
2022-09-29T21:27:31.993Z,13.10
2022-09-29T21:29:59.065Z,13.10
2022-09-29T21:32:26.046Z,13.10
2022-09-29T21:34:53.137Z,13.10
2022-09-29T21:37:20.290Z,13.10
2022-09-29T21:39:47.366Z,13.10
2022-09-29T21:42:14.563Z,13.10
2022-09-29T21:44:41.558Z,13.20
2022-09-29T21:47:08.684Z,13.20
2022-09-29T21:49:37.290Z,13.20
2022-09-29T21:52:04.331Z,13.20
2022-09-29T21:54:31.445Z,13.20
2022-09-29T21:56:58.711Z,13.20
2022-09-29T21:59:25.961Z,13.10
2022-09-29T22:01:53.232Z,13.10
2022-09-29T22:04:21.118Z,13.10
2022-09-29T22:06:48.538Z,13.10
2022-09-29T22:09:19.108Z,13.10
2022-09-29T22:11:48.807Z,13.10
2022-09-29T22:14:17.018Z,13.10
2022-09-29T22:16:44.821Z,13.10
2022-09-29T22:19:28.734Z,13.10
2022-09-29T22:21:56.015Z,13.10
2022-09-29T22:24:24.572Z,13.20
2022-09-29T22:26:52.277Z,13.20
2022-09-29T22:29:20.610Z,13.20
2022-09-29T22:31:47.770Z,13.10
2022-09-29T22:34:14.939Z,13.10
2022-09-29T22:36:42.018Z,13.10
2022-09-29T22:39:10.205Z,13.10
2022-09-29T22:41:39.942Z,13.10
2022-09-29T22:44:08.332Z,13.10
2022-09-29T22:46:36.055Z,13.20
2022-09-29T22:49:03.645Z,13.20
2022-09-29T22:51:30.907Z,13.20
2022-09-29T22:53:57.965Z,13.20
2022-09-29T22:56:29.009Z,13.20
2022-09-29T22:59:01.427Z,13.20
2022-09-29T23:01:29.235Z,13.20
2022-09-29T23:03:56.879Z,13.20
2022-09-29T23:06:24.008Z,13.20
2022-09-29T23:08:51.439Z,13.20
2022-09-29T23:11:20.838Z,13.20
2022-09-29T23:13:49.082Z,13.20
2022-09-29T23:16:17.518Z,13.20
2022-09-29T23:18:46.212Z,13.20
2022-09-29T23:21:20.372Z,13.20
2022-09-29T23:23:51.713Z,13.20
2022-09-29T23:26:18.931Z,13.20
2022-09-29T23:28:45.979Z,13.20
2022-09-29T23:31:13.066Z,13.20
2022-09-29T23:33:40.230Z,13.10
2022-09-29T23:36:08.685Z,13.10
2022-09-29T23:38:55.083Z,13.10
2022-09-29T23:41:22.108Z,13.10
2022-09-29T23:43:49.074Z,13.10
2022-09-29T23:46:16.142Z,13.20
2022-09-29T23:48:43.200Z,13.20
2022-09-29T23:51:10.120Z,13.20
2022-09-29T23:53:37.527Z,13.20
2022-09-29T23:56:04.640Z,13.20
2022-09-29T23:58:31.605Z,13.20
